createdAt,value
2018-08-21T00:00:06.934Z,0.00
2018-08-21T00:01:06.922Z,0.00
2018-08-21T00:02:06.909Z,0.00
2018-08-21T00:03:06.899Z,0.00
2018-08-21T00:04:06.889Z,0.00
2018-08-21T00:05:06.876Z,0.00
2018-08-21T00:06:06.866Z,0.00
2018-08-21T00:07:06.867Z,0.00
2018-08-21T00:08:06.843Z,0.00
2018-08-21T00:09:06.832Z,0.00
2018-08-21T00:10:06.822Z,0.00
2018-08-21T00:11:06.811Z,0.00
2018-08-21T00:12:06.800Z,0.00
2018-08-21T00:13:06.789Z,0.00
2018-08-21T00:14:06.778Z,0.00
2018-08-21T00:15:06.766Z,0.00
2018-08-21T00:16:06.763Z,0.00
2018-08-21T00:17:06.746Z,0.00
2018-08-21T00:18:06.735Z,0.00
2018-08-21T00:19:06.722Z,0.00
2018-08-21T00:20:06.717Z,0.00
2018-08-21T00:21:06.705Z,0.00
2018-08-21T00:22:06.690Z,0.00
2018-08-21T00:23:06.681Z,0.00
2018-08-21T00:24:06.669Z,0.00
2018-08-21T00:25:06.655Z,0.00
2018-08-21T00:26:06.646Z,0.00
2018-08-21T00:27:06.637Z,0.00
2018-08-21T00:28:06.623Z,0.00
2018-08-21T00:29:06.611Z,0.00
2018-08-21T00:30:06.602Z,0.00
2018-08-21T00:31:06.594Z,0.00
2018-08-21T00:32:06.578Z,0.00
2018-08-21T00:33:06.572Z,0.00
2018-08-21T00:34:06.557Z,0.00
2018-08-21T00:35:06.544Z,0.00
2018-08-21T00:36:06.534Z,0.00
2018-08-21T00:37:06.522Z,0.00
2018-08-21T00:38:06.512Z,0.00
2018-08-21T00:39:06.508Z,0.00
2018-08-21T00:40:06.491Z,0.00
2018-08-21T00:41:06.478Z,0.00
2018-08-21T00:42:06.470Z,0.00
2018-08-21T00:43:06.458Z,0.00
2018-08-21T00:44:06.446Z,0.00
2018-08-21T00:45:06.433Z,0.00
2018-08-21T00:46:06.426Z,0.00
2018-08-21T00:47:06.412Z,0.00
2018-08-21T00:48:06.401Z,0.00
2018-08-21T00:49:06.388Z,0.00
2018-08-21T00:50:06.378Z,0.00
2018-08-21T00:51:06.368Z,0.00
2018-08-21T00:52:06.356Z,0.00
2018-08-21T00:53:06.343Z,0.00
2018-08-21T00:54:06.333Z,0.00
2018-08-21T00:55:06.322Z,0.00
2018-08-21T00:56:06.313Z,0.00
2018-08-21T00:57:06.301Z,0.00
2018-08-21T00:58:06.288Z,0.00
2018-08-21T00:59:06.277Z,0.00
2018-08-21T01:00:06.268Z,0.00
2018-08-21T01:01:06.255Z,0.00
2018-08-21T01:02:06.249Z,0.00
2018-08-21T01:03:06.233Z,0.00
2018-08-21T01:04:06.221Z,0.00
2018-08-21T01:05:06.210Z,0.00
2018-08-21T01:06:06.200Z,0.00
2018-08-21T01:07:06.187Z,0.00
2018-08-21T01:08:06.178Z,0.00
2018-08-21T01:09:06.163Z,0.00
2018-08-21T01:10:06.155Z,0.00
2018-08-21T01:11:06.148Z,0.00
2018-08-21T01:12:06.131Z,0.00
2018-08-21T01:13:06.118Z,0.00
2018-08-21T01:14:06.106Z,0.00
2018-08-21T01:15:06.095Z,0.00
2018-08-21T01:16:06.088Z,0.00
2018-08-21T01:17:06.073Z,0.00
2018-08-21T01:18:06.060Z,0.00
2018-08-21T01:19:06.052Z,0.00
2018-08-21T01:20:06.037Z,0.00
2018-08-21T01:21:06.027Z,0.00
2018-08-21T01:22:06.017Z,0.00
2018-08-21T01:23:06.002Z,0.00
2018-08-21T01:24:05.995Z,0.00
2018-08-21T01:25:05.980Z,0.00
2018-08-21T01:26:05.968Z,0.00
2018-08-21T01:27:05.958Z,0.00
2018-08-21T01:28:05.950Z,0.00
2018-08-21T01:29:05.949Z,0.00
2018-08-21T01:30:05.924Z,0.00
2018-08-21T01:31:05.915Z,0.00
2018-08-21T01:32:05.901Z,0.00
2018-08-21T01:33:05.887Z,0.00
2018-08-21T01:34:05.883Z,0.00
2018-08-21T01:35:05.872Z,0.00
2018-08-21T01:36:05.858Z,0.00
2018-08-21T01:37:05.847Z,0.00
2018-08-21T01:38:05.832Z,0.00
2018-08-21T01:39:05.824Z,0.00
2018-08-21T01:40:05.815Z,0.00
2018-08-21T01:41:05.806Z,0.00
2018-08-21T01:42:05.784Z,0.00
2018-08-21T01:43:05.777Z,0.00
2018-08-21T01:44:05.762Z,0.00
2018-08-21T01:45:05.749Z,0.00
2018-08-21T01:46:05.739Z,0.00
2018-08-21T01:47:05.727Z,0.00
2018-08-21T01:48:05.721Z,0.00
2018-08-21T01:49:05.701Z,0.00
2018-08-21T01:50:05.695Z,0.00
2018-08-21T01:51:05.688Z,0.00
2018-08-21T01:52:05.667Z,0.00
2018-08-21T01:53:05.657Z,0.00
2018-08-21T01:54:05.645Z,0.00
2018-08-21T01:55:05.637Z,0.00
2018-08-21T01:56:05.622Z,0.00
2018-08-21T01:57:05.610Z,0.00
2018-08-21T01:58:05.607Z,0.00
2018-08-21T01:59:05.591Z,0.00
2018-08-21T02:00:05.574Z,0.00
2018-08-21T02:01:05.568Z,0.00
2018-08-21T02:02:05.555Z,0.00
2018-08-21T02:03:05.539Z,0.00
2018-08-21T02:04:05.529Z,0.00
2018-08-21T02:05:05.517Z,0.00
2018-08-21T02:06:05.504Z,0.00
2018-08-21T02:07:05.491Z,0.00
2018-08-21T02:08:05.481Z,0.00
2018-08-21T02:09:05.469Z,0.00
2018-08-21T02:10:05.456Z,0.00
2018-08-21T02:11:05.443Z,0.00
2018-08-21T02:12:05.439Z,0.00
2018-08-21T02:13:05.422Z,0.00
2018-08-21T02:14:05.408Z,0.00
2018-08-21T02:15:05.407Z,0.00
2018-08-21T02:16:05.385Z,0.00
2018-08-21T02:17:05.373Z,0.00
2018-08-21T02:18:05.361Z,0.00
2018-08-21T02:19:05.351Z,0.00
2018-08-21T02:20:05.338Z,0.00
2018-08-21T02:21:05.326Z,0.00
2018-08-21T02:22:05.316Z,0.00
2018-08-21T02:23:05.302Z,0.00
2018-08-21T02:24:05.290Z,0.00
2018-08-21T02:25:05.277Z,0.00
2018-08-21T02:26:05.265Z,0.00
2018-08-21T02:27:05.253Z,0.00
2018-08-21T02:28:05.243Z,0.00
2018-08-21T02:29:05.229Z,0.00
2018-08-21T02:30:05.221Z,0.00
2018-08-21T02:31:05.211Z,0.00
2018-08-21T02:32:05.244Z,0.00
2018-08-21T02:33:05.181Z,0.00
2018-08-21T02:34:05.171Z,0.00
2018-08-21T02:35:05.158Z,0.00
2018-08-21T02:36:05.149Z,0.00
2018-08-21T02:37:05.134Z,0.00
2018-08-21T02:38:05.123Z,0.00
2018-08-21T02:39:05.111Z,0.00
2018-08-21T02:40:05.099Z,0.00
2018-08-21T02:41:05.086Z,0.00
2018-08-21T02:42:05.075Z,0.00
2018-08-21T02:43:05.063Z,0.00
2018-08-21T02:44:05.051Z,0.00
2018-08-21T02:45:05.038Z,0.00
2018-08-21T02:46:05.028Z,0.00
2018-08-21T02:47:05.015Z,0.00
2018-08-21T02:48:05.005Z,0.00
2018-08-21T02:49:04.990Z,0.00
2018-08-21T02:50:04.980Z,0.00
2018-08-21T02:51:04.970Z,0.00
2018-08-21T02:52:04.958Z,0.00
2018-08-21T02:53:04.942Z,0.00
2018-08-21T02:54:04.939Z,0.00
2018-08-21T02:55:04.920Z,0.00
2018-08-21T02:56:04.907Z,0.00
2018-08-21T02:57:04.896Z,0.00
2018-08-21T02:58:04.884Z,0.00
2018-08-21T02:59:04.872Z,0.00
2018-08-21T03:00:04.861Z,0.00
2018-08-21T03:01:04.845Z,0.00
2018-08-21T03:02:04.837Z,0.00
2018-08-21T03:03:04.823Z,0.00
2018-08-21T03:04:04.814Z,0.00
2018-08-21T03:05:04.800Z,0.00
2018-08-21T03:06:04.786Z,0.00
2018-08-21T03:07:04.782Z,0.00
2018-08-21T03:08:04.765Z,0.00
2018-08-21T03:09:04.755Z,0.00
2018-08-21T03:10:04.737Z,0.00
2018-08-21T03:11:04.725Z,0.00
2018-08-21T03:12:04.716Z,0.00
2018-08-21T03:13:04.701Z,0.00
2018-08-21T03:14:04.688Z,0.00
2018-08-21T03:15:04.678Z,0.00
2018-08-21T03:16:04.664Z,0.00
2018-08-21T03:17:04.655Z,0.00
2018-08-21T03:18:04.639Z,0.00
2018-08-21T03:19:04.625Z,0.00
2018-08-21T03:20:04.620Z,0.00
2018-08-21T03:21:04.605Z,0.00
2018-08-21T03:22:04.590Z,0.00
2018-08-21T03:23:04.580Z,0.00
2018-08-21T03:24:04.571Z,0.00
2018-08-21T03:25:04.557Z,0.00
2018-08-21T03:26:04.541Z,0.00
2018-08-21T03:27:04.532Z,0.00
2018-08-21T03:28:04.521Z,0.00
2018-08-21T03:29:04.504Z,0.00
2018-08-21T03:30:04.491Z,0.00
2018-08-21T03:31:04.481Z,0.00
2018-08-21T03:32:04.470Z,0.00
2018-08-21T03:33:04.454Z,0.00
2018-08-21T03:34:04.441Z,0.00
2018-08-21T03:35:04.429Z,0.00
2018-08-21T03:36:04.421Z,0.00
2018-08-21T03:37:04.404Z,0.00
2018-08-21T03:38:04.395Z,0.00
2018-08-21T03:39:04.385Z,0.00
2018-08-21T03:40:04.366Z,0.00
2018-08-21T03:41:04.357Z,0.00
2018-08-21T03:42:04.340Z,0.00
2018-08-21T03:43:04.332Z,0.00
2018-08-21T03:44:04.320Z,0.00
2018-08-21T03:45:04.303Z,0.00
2018-08-21T03:46:04.293Z,0.00
2018-08-21T03:47:04.280Z,0.00
2018-08-21T03:48:04.273Z,0.00
2018-08-21T03:49:04.256Z,0.00
2018-08-21T03:50:04.247Z,0.00
2018-08-21T03:51:04.235Z,0.00
2018-08-21T03:52:04.220Z,4.00
2018-08-21T03:53:04.211Z,4.00
2018-08-21T03:54:04.193Z,0.00
2018-08-21T03:55:04.182Z,4.00
2018-08-21T03:56:04.169Z,4.00
2018-08-21T03:57:04.159Z,4.00
2018-08-21T03:58:04.143Z,4.00
2018-08-21T03:59:04.135Z,4.00
2018-08-21T04:00:04.119Z,4.00
2018-08-21T04:01:04.106Z,8.00
2018-08-21T04:02:04.093Z,8.00
2018-08-21T04:03:04.081Z,12.00
2018-08-21T04:04:04.070Z,12.00
2018-08-21T04:05:04.092Z,16.00
2018-08-21T04:06:04.044Z,16.00
2018-08-21T04:07:04.031Z,16.00
2018-08-21T04:08:04.023Z,20.00
2018-08-21T04:09:04.015Z,24.00
2018-08-21T04:10:03.993Z,28.00
2018-08-21T04:11:03.982Z,32.00
2018-08-21T04:12:03.970Z,32.00
2018-08-21T04:13:03.956Z,40.00
2018-08-21T04:14:03.944Z,40.00
2018-08-21T04:15:03.932Z,48.00
2018-08-21T04:16:03.920Z,52.00
2018-08-21T04:17:03.906Z,60.00
2018-08-21T04:18:03.893Z,64.00
2018-08-21T04:19:03.890Z,72.00
2018-08-21T04:20:03.869Z,80.00
2018-08-21T04:21:03.856Z,88.00
2018-08-21T04:22:03.844Z,92.00
2018-08-21T04:23:03.844Z,100.00
2018-08-21T04:24:03.822Z,108.00
2018-08-21T04:25:03.809Z,120.00
2018-08-21T04:26:03.795Z,132.00
2018-08-21T04:27:03.783Z,140.00
2018-08-21T04:28:03.773Z,152.00
2018-08-21T04:29:03.758Z,160.00
2018-08-21T04:30:03.745Z,180.00
2018-08-21T04:31:03.733Z,192.00
2018-08-21T04:32:03.722Z,204.00
2018-08-21T04:33:03.706Z,220.00
2018-08-21T04:34:03.696Z,236.00
2018-08-21T04:35:03.684Z,252.00
2018-08-21T04:36:03.674Z,268.00
2018-08-21T04:37:03.657Z,284.00
2018-08-21T04:38:03.706Z,308.00
2018-08-21T04:39:03.636Z,332.00
2018-08-21T04:40:03.624Z,352.00
2018-08-21T04:41:03.606Z,376.00
2018-08-21T04:42:03.602Z,400.00
2018-08-21T04:43:03.584Z,424.00
2018-08-21T04:44:03.568Z,448.00
2018-08-21T04:45:03.559Z,472.00
2018-08-21T04:46:03.545Z,496.00
2018-08-21T04:47:03.539Z,520.00
2018-08-21T04:48:03.523Z,548.00
2018-08-21T04:49:03.507Z,572.00
2018-08-21T04:50:03.494Z,604.00
2018-08-21T04:51:03.482Z,632.00
2018-08-21T04:52:03.469Z,660.00
2018-08-21T04:53:03.456Z,692.00
2018-08-21T04:54:03.444Z,724.00
2018-08-21T04:55:03.434Z,760.00
2018-08-21T04:56:03.417Z,796.00
2018-08-21T04:57:03.409Z,832.00
2018-08-21T04:58:03.401Z,872.00
2018-08-21T04:59:03.395Z,908.00
2018-08-21T05:00:03.366Z,944.00
2018-08-21T05:01:03.359Z,976.00
2018-08-21T05:02:03.341Z,1020.00
2018-08-21T05:03:03.335Z,1064.00
2018-08-21T05:04:03.324Z,1108.00
2018-08-21T05:05:03.306Z,1152.00
2018-08-21T05:06:03.302Z,1200.00
2018-08-21T05:07:03.279Z,1244.00
2018-08-21T05:08:03.267Z,1288.00
2018-08-21T05:09:03.253Z,1332.00
2018-08-21T05:10:03.244Z,1380.00
2018-08-21T05:11:03.238Z,1424.00
2018-08-21T05:12:03.220Z,1472.00
2018-08-21T05:13:03.215Z,1520.00
2018-08-21T05:14:03.202Z,1572.00
2018-08-21T05:15:03.182Z,1624.00
2018-08-21T05:16:03.169Z,1672.00
2018-08-21T05:17:03.159Z,1720.00
2018-08-21T05:18:03.165Z,1772.00
2018-08-21T05:19:03.135Z,1820.00
2018-08-21T05:20:03.125Z,1864.00
2018-08-21T05:21:03.106Z,1916.00
2018-08-21T05:22:03.095Z,1952.00
2018-08-21T05:23:03.081Z,1988.00
2018-08-21T05:24:03.072Z,2024.00
2018-08-21T05:25:03.056Z,2052.00
2018-08-21T05:26:03.043Z,2076.00
2018-08-21T05:27:03.032Z,2104.00
2018-08-21T05:28:03.023Z,2148.00
2018-08-21T05:29:03.012Z,2192.00
2018-08-21T05:30:02.995Z,2236.00
2018-08-21T05:31:02.983Z,2284.00
2018-08-21T05:32:02.974Z,2328.00
2018-08-21T05:33:02.961Z,2380.00
2018-08-21T05:34:02.948Z,2404.00
2018-08-21T05:35:02.934Z,2440.00
2018-08-21T05:36:02.926Z,2496.00
2018-08-21T05:37:02.914Z,2548.00
2018-08-21T05:38:02.900Z,2580.00
2018-08-21T05:39:02.884Z,2612.00
2018-08-21T05:40:02.877Z,2648.00
2018-08-21T05:41:02.860Z,2696.00
2018-08-21T05:42:02.851Z,2744.00
2018-08-21T05:43:02.848Z,2788.00
2018-08-21T05:44:02.824Z,2832.00
2018-08-21T05:45:02.811Z,2880.00
2018-08-21T05:46:02.799Z,2924.00
2018-08-21T05:47:02.788Z,2964.00
2018-08-21T05:48:02.776Z,3004.00
2018-08-21T05:49:02.767Z,3036.00
2018-08-21T05:50:02.754Z,3076.00
2018-08-21T05:51:02.748Z,3116.00
2018-08-21T05:52:02.729Z,3160.00
2018-08-21T05:53:02.715Z,3208.00
2018-08-21T05:54:02.704Z,3256.00
2018-08-21T05:55:02.693Z,3300.00
2018-08-21T05:56:02.679Z,3356.00
2018-08-21T05:57:02.667Z,3420.00
2018-08-21T05:58:02.661Z,3476.00
2018-08-21T05:59:02.651Z,3512.00
2018-08-21T06:00:02.640Z,3556.00
2018-08-21T06:01:02.620Z,3604.00
2018-08-21T06:02:02.610Z,3648.00
2018-08-21T06:03:02.598Z,3696.00
2018-08-21T06:04:02.586Z,3744.00
2018-08-21T06:05:02.580Z,3800.00
2018-08-21T06:06:02.616Z,3864.00
2018-08-21T06:07:02.551Z,3924.00
2018-08-21T06:08:02.621Z,3972.00
2018-08-21T06:09:02.528Z,4020.00
2018-08-21T06:10:02.516Z,4080.00
2018-08-21T06:11:02.513Z,4140.00
2018-08-21T06:12:02.493Z,4208.00
2018-08-21T06:13:02.480Z,4276.00
2018-08-21T06:14:02.513Z,4340.00
2018-08-21T06:15:02.459Z,4412.00
2018-08-21T06:16:02.453Z,4492.00
2018-08-21T06:17:02.440Z,4556.00
2018-08-21T06:18:02.426Z,4624.00
2018-08-21T06:19:02.434Z,4664.00
2018-08-21T06:20:02.404Z,4716.00
2018-08-21T06:21:02.390Z,4788.00
2018-08-21T06:22:02.381Z,4840.00
2018-08-21T06:23:02.369Z,4908.00
2018-08-21T06:24:02.360Z,4980.00
2018-08-21T06:25:02.344Z,5076.00
2018-08-21T06:26:02.333Z,5196.00
2018-08-21T06:27:02.324Z,5296.00
2018-08-21T06:28:02.318Z,5384.00
2018-08-21T06:29:02.299Z,5344.00
2018-08-21T06:30:02.296Z,5180.00
2018-08-21T06:31:02.278Z,5116.00
2018-08-21T06:32:02.311Z,5156.00
2018-08-21T06:33:02.258Z,5296.00
2018-08-21T06:34:02.246Z,5544.00
2018-08-21T06:35:02.232Z,5832.00
2018-08-21T06:36:02.223Z,6136.00
2018-08-21T06:37:02.211Z,6392.00
2018-08-21T06:38:02.242Z,6580.00
2018-08-21T06:39:02.203Z,6764.00
2018-08-21T06:40:02.182Z,6952.00
2018-08-21T06:41:02.167Z,7132.00
2018-08-21T06:42:02.166Z,7300.00
2018-08-21T06:43:02.151Z,7368.00
2018-08-21T06:44:02.142Z,7368.00
2018-08-21T06:45:02.125Z,7400.00
2018-08-21T06:46:02.119Z,7552.00
2018-08-21T06:47:02.109Z,7736.00
2018-08-21T06:48:02.094Z,7956.00
2018-08-21T06:49:02.083Z,8276.00
2018-08-21T06:50:02.077Z,8560.00
2018-08-21T06:51:02.066Z,8732.00
2018-08-21T06:52:02.059Z,8824.00
2018-08-21T06:53:02.105Z,9020.00
2018-08-21T06:54:02.032Z,9356.00
2018-08-21T06:55:02.021Z,9536.00
2018-08-21T06:56:02.011Z,9724.00
2018-08-21T06:57:02.001Z,10080.00
2018-08-21T06:58:01.991Z,10616.00
2018-08-21T06:59:01.980Z,10872.00
2018-08-21T07:00:02.027Z,11256.00
2018-08-21T07:01:01.964Z,11492.00
2018-08-21T07:02:01.956Z,11780.00
2018-08-21T07:03:01.943Z,12052.00
2018-08-21T07:04:01.944Z,12268.00
2018-08-21T07:05:01.926Z,12520.00
2018-08-21T07:06:01.925Z,12756.00
2018-08-21T07:07:01.913Z,13264.00
2018-08-21T07:08:01.908Z,13520.00
2018-08-21T07:09:01.896Z,13944.00
2018-08-21T07:10:01.888Z,13996.00
2018-08-21T07:11:01.883Z,13860.00
2018-08-21T07:12:01.876Z,14052.00
2018-08-21T07:13:01.870Z,13984.00
2018-08-21T07:14:01.868Z,14336.00
2018-08-21T07:15:01.864Z,14824.00
2018-08-21T07:16:01.858Z,15292.00
2018-08-21T07:17:01.870Z,16384.00
2018-08-21T07:18:01.845Z,16736.00
2018-08-21T07:19:01.837Z,17312.00
2018-08-21T07:20:01.836Z,18176.00
2018-08-21T07:21:01.824Z,19264.00
2018-08-21T07:22:01.824Z,23232.00
2018-08-21T07:23:01.818Z,33184.00
2018-08-21T07:24:01.812Z,38976.00
2018-08-21T07:25:01.812Z,35264.00
2018-08-21T07:26:01.804Z,31232.00
2018-08-21T07:27:01.801Z,28960.00
2018-08-21T07:28:01.796Z,28448.00
2018-08-21T07:29:01.791Z,26848.00
2018-08-21T07:30:01.789Z,23584.00
2018-08-21T07:31:01.782Z,20192.00
2018-08-21T07:32:01.782Z,17632.00
2018-08-21T07:33:01.777Z,15288.00
2018-08-21T07:34:01.769Z,13628.00
2018-08-21T07:35:01.765Z,12400.00
2018-08-21T07:36:01.763Z,11396.00
2018-08-21T07:37:01.754Z,10564.00
2018-08-21T07:38:01.749Z,9804.00
2018-08-21T07:39:01.741Z,9008.00
2018-08-21T07:40:01.736Z,8236.00
2018-08-21T07:41:01.731Z,7648.00
2018-08-21T07:42:01.725Z,7244.00
2018-08-21T07:43:01.721Z,7032.00
2018-08-21T07:44:01.712Z,6964.00
2018-08-21T07:45:01.713Z,6824.00
2018-08-21T07:46:01.705Z,6640.00
2018-08-21T07:47:01.695Z,6428.00
2018-08-21T07:48:01.694Z,6196.00
2018-08-21T07:49:01.678Z,6004.00
2018-08-21T07:50:01.676Z,5864.00
2018-08-21T07:51:01.663Z,5824.00
2018-08-21T07:52:01.655Z,5880.00
2018-08-21T07:53:01.652Z,6020.00
2018-08-21T07:54:01.642Z,6204.00
2018-08-21T07:55:01.635Z,6432.00
2018-08-21T07:56:01.627Z,6656.00
2018-08-21T07:57:01.618Z,6836.00
2018-08-21T07:58:01.614Z,6928.00
2018-08-21T07:59:01.606Z,6976.00
2018-08-21T08:00:01.595Z,7024.00
2018-08-21T08:01:01.583Z,7088.00
2018-08-21T08:02:01.578Z,7176.00
2018-08-21T08:03:01.566Z,7264.00
2018-08-21T08:04:01.613Z,7352.00
2018-08-21T08:05:01.552Z,7432.00
2018-08-21T08:06:01.552Z,7592.00
2018-08-21T08:07:01.535Z,7788.00
2018-08-21T08:08:01.529Z,7976.00
2018-08-21T08:09:01.534Z,8228.00
2018-08-21T08:10:01.513Z,8600.00
2018-08-21T08:11:01.505Z,9168.00
2018-08-21T08:12:01.491Z,9636.00
2018-08-21T08:13:01.484Z,9720.00
2018-08-21T08:14:01.727Z,9828.00
2018-08-21T08:15:01.471Z,10284.00
2018-08-21T08:16:01.469Z,10400.00
2018-08-21T08:17:01.460Z,9748.00
2018-08-21T08:18:01.444Z,9260.00
2018-08-21T08:19:01.514Z,8936.00
2018-08-21T08:20:01.451Z,8732.00
2018-08-21T08:21:01.458Z,8604.00
2018-08-21T08:22:01.412Z,8500.00
2018-08-21T08:23:01.470Z,8408.00
2018-08-21T08:24:01.397Z,8312.00
2018-08-21T08:25:01.389Z,8248.00
2018-08-21T08:26:01.377Z,8224.00
2018-08-21T08:27:01.374Z,8236.00
2018-08-21T08:28:01.367Z,8276.00
2018-08-21T08:29:01.445Z,8356.00
2018-08-21T08:30:01.345Z,8468.00
2018-08-21T08:31:01.340Z,8644.00
2018-08-21T08:32:01.330Z,8812.00
2018-08-21T08:33:01.326Z,8920.00
2018-08-21T08:34:01.314Z,9016.00
2018-08-21T08:35:01.309Z,9140.00
2018-08-21T08:36:01.355Z,9188.00
2018-08-21T08:37:01.292Z,9308.00
2018-08-21T08:38:01.278Z,9296.00
2018-08-21T08:39:01.270Z,9176.00
2018-08-21T08:40:01.265Z,8916.00
2018-08-21T08:41:01.252Z,8696.00
2018-08-21T08:42:01.304Z,8628.00
2018-08-21T08:43:01.247Z,8716.00
2018-08-21T08:44:01.230Z,8892.00
2018-08-21T08:45:01.225Z,9080.00
2018-08-21T08:46:01.215Z,9224.00
2018-08-21T08:47:01.205Z,9564.00
2018-08-21T08:48:01.196Z,9524.00
2018-08-21T08:49:01.189Z,8724.00
2018-08-21T08:50:01.182Z,8496.00
2018-08-21T08:51:01.173Z,8368.00
2018-08-21T08:52:01.172Z,8424.00
2018-08-21T08:53:01.157Z,8488.00
2018-08-21T08:54:01.147Z,8584.00
2018-08-21T08:55:01.143Z,8584.00
2018-08-21T08:56:01.134Z,8480.00
2018-08-21T08:57:01.135Z,8376.00
2018-08-21T08:58:01.116Z,8272.00
2018-08-21T08:59:01.109Z,8224.00
2018-08-21T09:00:01.103Z,8180.00
2018-08-21T09:01:01.094Z,8084.00
2018-08-21T09:02:01.084Z,7996.00
2018-08-21T09:03:01.074Z,7848.00
2018-08-21T09:04:01.071Z,7700.00
2018-08-21T09:05:01.121Z,7556.00
2018-08-21T09:06:01.053Z,7448.00
2018-08-21T09:07:01.046Z,7384.00
2018-08-21T09:08:01.040Z,7372.00
2018-08-21T09:09:01.031Z,7404.00
2018-08-21T09:10:01.020Z,7500.00
2018-08-21T09:11:01.010Z,7520.00
2018-08-21T09:12:01.012Z,7548.00
2018-08-21T09:13:00.993Z,7576.00
2018-08-21T09:14:00.997Z,7544.00
2018-08-21T09:15:00.988Z,7504.00
2018-08-21T09:16:00.973Z,7496.00
2018-08-21T09:17:00.963Z,7548.00
2018-08-21T09:18:00.979Z,7660.00
2018-08-21T09:19:00.949Z,7888.00
2018-08-21T09:20:00.949Z,8124.00
2018-08-21T09:21:00.933Z,8276.00
2018-08-21T09:22:00.926Z,8312.00
2018-08-21T09:23:00.917Z,8288.00
2018-08-21T09:24:00.915Z,8316.00
2018-08-21T09:25:00.903Z,8460.00
2018-08-21T09:26:00.894Z,8468.00
2018-08-21T09:27:00.889Z,8364.00
2018-08-21T09:28:00.883Z,8328.00
2018-08-21T09:29:00.879Z,8312.00
2018-08-21T09:30:00.864Z,8348.00
2018-08-21T09:31:00.857Z,8732.00
2018-08-21T09:32:00.855Z,8164.00
2018-08-21T09:33:00.844Z,7936.00
2018-08-21T09:34:00.845Z,7776.00
2018-08-21T09:35:00.828Z,7640.00
2018-08-21T09:36:00.871Z,7496.00
2018-08-21T09:37:00.809Z,7328.00
2018-08-21T09:38:00.857Z,7144.00
2018-08-21T09:39:00.795Z,6932.00
2018-08-21T09:40:00.789Z,6772.00
2018-08-21T09:41:00.779Z,6632.00
2018-08-21T09:42:00.773Z,6464.00
2018-08-21T09:43:00.765Z,6296.00
2018-08-21T09:44:00.761Z,6132.00
2018-08-21T09:45:00.750Z,5956.00
2018-08-21T09:46:00.743Z,5764.00
2018-08-21T09:47:00.739Z,5572.00
2018-08-21T09:48:00.734Z,5392.00
2018-08-21T09:49:00.725Z,5260.00
2018-08-21T09:50:00.710Z,5144.00
2018-08-21T09:51:00.700Z,5044.00
2018-08-21T09:52:00.696Z,4944.00
2018-08-21T09:53:00.686Z,4856.00
2018-08-21T09:54:00.682Z,4784.00
2018-08-21T09:55:00.671Z,4740.00
2018-08-21T09:56:00.665Z,4696.00
2018-08-21T09:57:00.658Z,4668.00
2018-08-21T09:58:00.649Z,4644.00
2018-08-21T09:59:00.640Z,4628.00
2018-08-21T10:00:00.632Z,4584.00
2018-08-21T10:01:00.620Z,4528.00
2018-08-21T10:02:00.610Z,4464.00
2018-08-21T10:03:00.602Z,4404.00
2018-08-21T10:04:00.595Z,4352.00
2018-08-21T10:05:00.591Z,4316.00
2018-08-21T10:06:00.583Z,4300.00
2018-08-21T10:07:00.572Z,4312.00
2018-08-21T10:08:00.573Z,4340.00
2018-08-21T10:09:00.555Z,4356.00
2018-08-21T10:10:00.556Z,4384.00
2018-08-21T10:11:00.538Z,4404.00
2018-08-21T10:12:00.532Z,4424.00
2018-08-21T10:13:00.526Z,4460.00
2018-08-21T10:14:00.525Z,4520.00
2018-08-21T10:15:00.512Z,4588.00
2018-08-21T10:16:00.503Z,4680.00
2018-08-21T10:17:00.491Z,4780.00
2018-08-21T10:18:00.491Z,4876.00
2018-08-21T10:19:00.487Z,4996.00
2018-08-21T10:20:00.469Z,5108.00
2018-08-21T10:21:00.457Z,5184.00
2018-08-21T10:22:00.449Z,5212.00
2018-08-21T10:23:00.443Z,5260.00
2018-08-21T10:24:00.435Z,5320.00
2018-08-21T10:25:00.429Z,5364.00
2018-08-21T10:26:00.422Z,5384.00
2018-08-21T10:27:00.411Z,5428.00
2018-08-21T10:28:00.400Z,5500.00
2018-08-21T10:29:00.393Z,5608.00
2018-08-21T10:30:00.383Z,5748.00
2018-08-21T10:31:00.375Z,5908.00
2018-08-21T10:32:00.366Z,6016.00
2018-08-21T10:33:00.357Z,6080.00
2018-08-21T10:34:00.360Z,6036.00
2018-08-21T10:35:00.352Z,6008.00
2018-08-21T10:36:00.335Z,5940.00
2018-08-21T10:37:00.327Z,5924.00
2018-08-21T10:38:00.322Z,5932.00
2018-08-21T10:39:00.311Z,5984.00
2018-08-21T10:40:00.303Z,6060.00
2018-08-21T10:41:00.292Z,6144.00
2018-08-21T10:42:00.286Z,6240.00
2018-08-21T10:43:00.279Z,6320.00
2018-08-21T10:44:00.283Z,6380.00
2018-08-21T10:45:00.263Z,6400.00
2018-08-21T10:46:00.258Z,6416.00
2018-08-21T10:47:00.248Z,6380.00
2018-08-21T10:48:00.239Z,6340.00
2018-08-21T10:49:00.237Z,6312.00
2018-08-21T10:50:00.230Z,6316.00
2018-08-21T10:51:00.218Z,6348.00
2018-08-21T10:52:00.212Z,6392.00
2018-08-21T10:53:00.200Z,6400.00
2018-08-21T10:54:00.196Z,6424.00
2018-08-21T10:55:00.198Z,6456.00
2018-08-21T10:56:00.177Z,6520.00
2018-08-21T10:57:00.176Z,6592.00
2018-08-21T10:58:00.168Z,6668.00
2018-08-21T10:59:00.160Z,6776.00
2018-08-21T11:00:00.158Z,6928.00
2018-08-21T11:01:00.138Z,7104.00
2018-08-21T11:02:00.140Z,7284.00
2018-08-21T11:03:00.124Z,7488.00
2018-08-21T11:04:00.124Z,7736.00
2018-08-21T11:05:00.116Z,7980.00
2018-08-21T11:06:00.102Z,8224.00
2018-08-21T11:07:00.094Z,8488.00
2018-08-21T11:08:00.097Z,8680.00
2018-08-21T11:09:00.080Z,9124.00
2018-08-21T11:10:00.072Z,8940.00
2018-08-21T11:11:00.071Z,9072.00
2018-08-21T11:12:00.060Z,9276.00
2018-08-21T11:13:00.052Z,9496.00
2018-08-21T11:14:00.047Z,9788.00
2018-08-21T11:15:00.064Z,10144.00
2018-08-21T11:16:00.033Z,10400.00
2018-08-21T11:17:00.027Z,10260.00
2018-08-21T11:18:00.029Z,10252.00
2018-08-21T11:19:00.010Z,10260.00
2018-08-21T11:20:00.008Z,10120.00
2018-08-21T11:21:00.014Z,10804.00
2018-08-21T11:21:59.996Z,11536.00
2018-08-21T11:22:59.985Z,13392.00
2018-08-21T11:24:00.000Z,11808.00
2018-08-21T11:24:59.976Z,10392.00
2018-08-21T11:25:59.968Z,12028.00
2018-08-21T11:26:59.964Z,10936.00
2018-08-21T11:27:59.958Z,9956.00
2018-08-21T11:28:59.965Z,12120.00
2018-08-21T11:29:59.991Z,11492.00
2018-08-21T11:30:59.945Z,11240.00
2018-08-21T11:31:59.937Z,10440.00
2018-08-21T11:32:59.928Z,10312.00
2018-08-21T11:33:59.940Z,10024.00
2018-08-21T11:34:59.917Z,9968.00
2018-08-21T11:35:59.909Z,8836.00
2018-08-21T11:36:59.916Z,8260.00
2018-08-21T11:37:59.999Z,8028.00
2018-08-21T11:38:59.895Z,8140.00
2018-08-21T11:39:59.885Z,9296.00
2018-08-21T11:40:59.880Z,8968.00
2018-08-21T11:41:59.886Z,8464.00
2018-08-21T11:42:59.871Z,9220.00
2018-08-21T11:43:59.863Z,9816.00
2018-08-21T11:44:59.862Z,8988.00
2018-08-21T11:45:59.856Z,8172.00
2018-08-21T11:46:59.852Z,9980.00
2018-08-21T11:47:59.895Z,10652.00
2018-08-21T11:48:59.838Z,9340.00
2018-08-21T11:49:59.833Z,9776.00
2018-08-21T11:50:59.837Z,10616.00
2018-08-21T11:51:59.817Z,10340.00
2018-08-21T11:52:59.810Z,10576.00
2018-08-21T11:53:59.809Z,11276.00
2018-08-21T11:54:59.802Z,9708.00
2018-08-21T11:55:59.797Z,11880.00
2018-08-21T11:56:59.808Z,11568.00
2018-08-21T11:57:59.787Z,9976.00
2018-08-21T11:58:59.784Z,10124.00
2018-08-21T11:59:59.777Z,10624.00
2018-08-21T12:00:59.770Z,10028.00
2018-08-21T12:01:59.810Z,11352.00
2018-08-21T12:02:59.759Z,10056.00
2018-08-21T12:03:59.764Z,10232.00
2018-08-21T12:04:59.749Z,10864.00
2018-08-21T12:05:59.743Z,10376.00
2018-08-21T12:06:59.741Z,9716.00
2018-08-21T12:07:59.738Z,9744.00
2018-08-21T12:08:59.846Z,9544.00
2018-08-21T12:09:59.728Z,9424.00
2018-08-21T12:10:59.723Z,9960.00
2018-08-21T12:11:59.728Z,10360.00
2018-08-21T12:12:59.710Z,10960.00
2018-08-21T12:13:59.715Z,9984.00
2018-08-21T12:14:59.709Z,11804.00
2018-08-21T12:15:59.696Z,10156.00
2018-08-21T12:16:59.694Z,9728.00
2018-08-21T12:17:59.686Z,9768.00
2018-08-21T12:18:59.680Z,9756.00
2018-08-21T12:19:59.688Z,9288.00
2018-08-21T12:20:59.673Z,8960.00
2018-08-21T12:21:59.664Z,8452.00
2018-08-21T12:22:59.661Z,8432.00
2018-08-21T12:23:59.666Z,7764.00
2018-08-21T12:24:59.646Z,6972.00
2018-08-21T12:25:59.642Z,7176.00
2018-08-21T12:26:59.643Z,9732.00